Time;durP1;ratioP1;P1;durP2;ratioP2;P2;SDS_P1;SDS_P2;PMS_P1;PMS_P2;Temp;Humidity;BMP_temperature;BMP_pressure;BME280_temperature;BME280_humidity;BME280_pressure;Samples;Min_cycle;Max_cycle;Signal;HPM_P1;HPM_P2
2022/11/01 00:00:24;;;;;;;17.38;9.65;;;14.10;99.90;;;;;;4920982;29;20551;-85
2022/11/01 00:02:50;;;;;;;20.73;9.98;;;14.10;99.90;;;;;;4924244;29;20368;-84
2022/11/01 00:05:16;;;;;;;17.70;9.48;;;14.10;99.90;;;;;;4911458;29;20039;-83
2022/11/01 00:07:42;;;;;;;15.25;9.32;;;14.10;99.90;;;;;;4928735;29;20050;-84
2022/11/01 00:10:09;;;;;;;19.45;9.23;;;14.10;99.90;;;;;;4927593;29;20127;-84
2022/11/01 00:12:35;;;;;;;16.50;9.18;;;14.10;99.90;;;;;;4912137;29;20091;-84
2022/11/01 00:15:02;;;;;;;15.98;8.88;;;14.10;99.90;;;;;;4921524;29;20050;-84
2022/11/01 00:17:28;;;;;;;21.17;9.68;;;14.20;99.90;;;;;;4942193;29;20162;-85
2022/11/01 00:19:53;;;;;;;15.10;7.82;;;14.20;99.90;;;;;;4917770;29;20039;-84
2022/11/01 00:22:21;;;;;;;16.40;8.32;;;14.20;99.90;;;;;;4928153;29;20409;-84
2022/11/01 00:24:47;;;;;;;18.08;8.10;;;14.30;99.90;;;;;;4940918;29;20051;-84
2022/11/01 00:27:12;;;;;;;16.67;8.32;;;14.30;99.90;;;;;;4917150;29;20047;-84
2022/11/01 00:29:38;;;;;;;19.38;8.13;;;14.30;99.90;;;;;;4928015;29;20050;-84
2022/11/01 00:32:04;;;;;;;16.60;8.55;;;14.20;99.90;;;;;;4942294;29;20527;-84
2022/11/01 00:34:29;;;;;;;14.25;7.78;;;14.30;99.90;;;;;;4943090;29;20062;-85
2022/11/01 00:36:55;;;;;;;10.32;6.35;;;14.40;99.90;;;;;;4953958;29;20152;-85
2022/11/01 00:39:21;;;;;;;13.45;7.15;;;14.40;99.90;;;;;;4934296;29;20050;-84
2022/11/01 00:41:46;;;;;;;13.57;6.80;;;14.40;99.90;;;;;;4939958;29;20411;-85
2022/11/01 00:44:12;;;;;;;12.23;6.97;;;14.50;99.90;;;;;;4942275;29;20032;-84
2022/11/01 00:46:38;;;;;;;17.50;6.13;;;14.50;99.90;;;;;;4917351;29;20432;-84
2022/11/01 00:49:03;;;;;;;13.13;6.65;;;14.50;99.90;;;;;;4941410;29;20054;-85
2022/11/01 00:51:29;;;;;;;11.27;6.13;;;14.60;99.90;;;;;;4941997;29;20075;-84
2022/11/01 00:53:55;;;;;;;15.07;6.25;;;14.60;99.90;;;;;;4926057;29;20050;-84
2022/11/01 00:56:20;;;;;;;15.60;6.80;;;14.60;99.90;;;;;;4911859;29;20110;-84
2022/11/01 00:58:46;;;;;;;9.32;6.03;;;14.70;99.90;;;;;;4953854;29;20046;-85
2022/11/01 01:01:12;;;;;;;11.20;5.88;;;14.70;99.90;;;;;;4923086;29;20058;-84
2022/11/01 01:03:37;;;;;;;11.52;6.40;;;14.70;99.90;;;;;;4940299;29;20133;-84
2022/11/01 01:06:03;;;;;;;11.32;6.15;;;14.80;99.90;;;;;;4925983;29;20587;-84
2022/11/01 01:08:29;;;;;;;12.90;5.75;;;14.80;99.90;;;;;;4929556;29;20122;-84
2022/11/01 01:10:55;;;;;;;11.13;6.35;;;14.80;99.90;;;;;;4925176;29;20090;-85
2022/11/01 01:13:22;;;;;;;11.10;4.95;;;14.90;99.90;;;;;;4938511;28;20518;-85
2022/11/01 01:15:47;;;;;;;11.00;6.43;;;14.90;99.90;;;;;;4955937;28;20090;-84
2022/11/01 01:18:13;;;;;;;11.90;5.90;;;14.90;99.90;;;;;;4937470;29;20044;-85
2022/11/01 01:20:39;;;;;;;12.95;5.32;;;14.90;99.90;;;;;;4922016;29;20039;-85
2022/11/01 01:23:05;;;;;;;13.35;6.30;;;14.90;99.90;;;;;;4953637;29;20074;-85
2022/11/01 01:25:31;;;;;;;11.55;5.50;;;15.00;99.90;;;;;;4939487;29;20047;-84
2022/11/01 01:27:57;;;;;;;13.52;5.53;;;15.00;99.90;;;;;;4937789;28;20053;-85
2022/11/01 01:30:23;;;;;;;10.98;4.78;;;15.10;99.90;;;;;;4907494;29;20463;-84
2022/11/01 01:32:48;;;;;;;12.65;5.80;;;15.10;99.90;;;;;;4924912;29;20051;-84
2022/11/01 01:35:14;;;;;;;17.38;6.07;;;15.10;99.90;;;;;;4922048;29;20135;-84
2022/11/01 01:37:40;;;;;;;9.57;5.55;;;15.10;99.90;;;;;;4944426;29;20062;-84
2022/11/01 01:40:07;;;;;;;13.65;5.80;;;15.10;99.90;;;;;;4940963;29;20043;-85
2022/11/01 01:42:41;;;;;;;12.10;5.85;;;15.10;99.90;;;;;;4941731;29;20043;-85
2022/11/01 01:45:28;;;;;;;13.25;5.13;;;15.20;99.90;;;;;;4956806;29;20049;-84
2022/11/01 01:48:01;;;;;;;14.93;5.82;;;15.20;99.90;;;;;;4940874;29;20043;-84
2022/11/01 01:50:32;;;;;;;12.48;5.20;;;15.20;99.90;;;;;;4953660;29;20500;-84
2022/11/01 01:53:05;;;;;;;13.00;5.30;;;15.20;99.90;;;;;;4949365;29;20047;-84
2022/11/01 01:55:39;;;;;;;11.40;5.53;;;15.20;99.90;;;;;;4940860;29;20043;-84
2022/11/01 01:58:08;;;;;;;10.20;5.03;;;15.30;99.90;;;;;;4940165;29;20043;-84
2022/11/01 02:00:33;;;;;;;14.88;5.53;;;15.30;99.90;;;;;;4922170;29;20047;-84
2022/11/01 02:02:59;;;;;;;12.05;5.97;;;15.30;99.90;;;;;;4941356;29;20070;-84
2022/11/01 02:05:47;;;;;;;14.38;5.88;;;15.20;99.90;;;;;;4941285;29;20396;-84
2022/11/01 02:08:14;;;;;;;12.02;5.50;;;15.20;99.90;;;;;;4938067;29;20060;-85
2022/11/01 02:10:40;;;;;;;12.57;5.40;;;15.20;99.90;;;;;;4936399;29;20071;-84
2022/11/01 02:13:13;;;;;;;17.38;5.97;;;15.20;99.90;;;;;;4941830;29;20043;-84
2022/11/01 02:16:07;;;;;;;11.77;5.70;;;15.20;99.90;;;;;;4940303;29;20039;-85
2022/11/01 02:18:36;;;;;;;10.57;5.55;;;15.10;99.90;;;;;;4955682;29;20050;-84
2022/11/01 02:21:39;;;;;;;13.73;5.75;;;15.10;99.90;;;;;;4956583;29;20515;-84
2022/11/01 02:24:47;;;;;;;9.50;5.18;;;15.10;99.90;;;;;;4946493;29;20078;-84
2022/11/01 02:27:13;;;;;;;9.80;5.25;;;15.10;99.90;;;;;;4935752;29;20392;-85
2022/11/01 02:29:58;;;;;;;13.85;6.38;;;15.00;99.90;;;;;;4937571;29;20035;-85
2022/11/01 02:33:00;;;;;;;10.95;5.22;;;15.10;99.90;;;;;;4932290;29;20499;-85
2022/11/01 02:35:36;;;;;;;11.65;5.80;;;15.10;99.90;;;;;;4939528;29;20090;-85
2022/11/01 02:38:20;;;;;;;11.73;5.53;;;15.10;99.90;;;;;;4955279;29;20055;-85
2022/11/01 02:41:10;;;;;;;15.98;6.20;;;15.10;99.90;;;;;;4955712;29;20108;-85
2022/11/01 02:43:43;;;;;;;10.85;5.85;;;15.10;99.90;;;;;;4954829;29;20040;-85
2022/11/01 02:48:55;;;;;;;11.98;5.20;;;15.10;99.90;;;;;;4954782;29;20051;-85
2022/11/01 02:51:24;;;;;;;13.18;6.43;;;15.10;99.90;;;;;;4924314;29;20385;-84
2022/11/01 02:53:50;;;;;;;10.25;5.70;;;15.20;99.90;;;;;;4938654;29;20039;-85
2022/11/01 02:56:17;;;;;;;15.07;5.55;;;15.20;99.90;;;;;;4939979;29;20049;-85
2022/11/01 02:58:45;;;;;;;11.43;5.60;;;15.30;99.90;;;;;;4917267;29;20039;-85
2022/11/01 03:01:17;;;;;;;9.05;5.20;;;15.30;99.90;;;;;;4938726;29;20538;-85
2022/11/01 03:03:46;;;;;;;10.73;5.60;;;15.40;99.90;;;;;;4939616;29;20043;-85
2022/11/01 03:06:29;;;;;;;12.85;5.07;;;15.50;99.90;;;;;;4956682;29;20118;-85
2022/11/01 03:08:59;;;;;;;11.57;4.93;;;15.50;99.90;;;;;;4950901;29;20050;-85
2022/11/01 03:11:50;;;;;;;15.52;5.85;;;15.60;99.90;;;;;;4940138;29;20094;-86
2022/11/01 03:14:40;;;;;;;10.13;5.32;;;15.60;99.90;;;;;;4955611;29;20046;-85
2022/11/01 03:17:22;;;;;;;12.43;6.28;;;15.70;99.90;;;;;;4955378;29;20154;-86
2022/11/01 03:20:14;;;;;;;14.70;6.32;;;15.80;99.90;;;;;;4950980;29;20074;-85
2022/11/01 03:22:47;;;;;;;16.27;6.10;;;15.80;99.90;;;;;;4939002;29;20042;-85
2022/11/01 03:25:38;;;;;;;10.30;5.40;;;15.90;99.90;;;;;;4940543;29;20361;-85
2022/11/01 03:28:22;;;;;;;9.38;5.40;;;15.90;99.90;;;;;;4939952;29;20492;-85
2022/11/01 03:31:01;;;;;;;13.68;5.40;;;15.90;99.90;;;;;;4922030;29;20048;-85
2022/11/01 03:33:29;;;;;;;12.15;5.28;;;16.00;99.90;;;;;;4941961;29;20118;-85
2022/11/01 03:36:00;;;;;;;10.32;5.97;;;16.00;99.90;;;;;;4954745;29;20055;-85
2022/11/01 03:38:31;;;;;;;10.32;4.68;;;16.10;99.90;;;;;;4961442;29;20044;-85
2022/11/01 03:41:05;;;;;;;12.95;4.93;;;16.10;99.90;;;;;;4949352;29;20051;-85
2022/11/01 03:43:34;;;;;;;10.38;4.68;;;16.10;99.90;;;;;;4937171;29;20122;-85
2022/11/01 03:45:59;;;;;;;13.35;5.25;;;16.20;99.90;;;;;;4940288;29;20094;-85
2022/11/01 03:48:25;;;;;;;13.40;5.13;;;16.10;99.90;;;;;;4939254;29;20326;-85
2022/11/01 03:50:55;;;;;;;8.45;4.53;;;16.20;99.90;;;;;;4923110;29;20062;-84
2022/11/01 03:53:21;;;;;;;12.15;4.65;;;16.20;99.90;;;;;;4945934;29;20050;-84
2022/11/01 03:55:47;;;;;;;12.23;4.65;;;16.30;99.90;;;;;;4951604;29;20062;-84
2022/11/01 03:58:12;;;;;;;7.63;5.13;;;16.30;99.90;;;;;;4922046;29;20043;-83
2022/11/01 04:00:41;;;;;;;9.80;5.00;;;16.30;99.90;;;;;;4922955;29;20039;-84
2022/11/01 04:03:07;;;;;;;9.23;5.05;;;16.30;99.90;;;;;;4938839;29;20050;-84
2022/11/01 04:05:35;;;;;;;15.93;6.05;;;16.30;99.90;;;;;;4938826;29;20042;-84
2022/11/01 04:08:01;;;;;;;11.98;5.32;;;16.20;99.90;;;;;;4953837;29;20094;-84
2022/11/01 04:10:28;;;;;;;10.23;5.20;;;16.20;99.90;;;;;;4922053;29;20043;-84
2022/11/01 04:12:53;;;;;;;10.05;5.13;;;16.30;99.90;;;;;;4954958;29;20051;-84
2022/11/01 04:20:54;;;;;;;9.98;4.82;;;16.10;99.90;;;;;;4954627;28;20106;-84
2022/11/01 04:23:20;;;;;;;7.75;5.18;;;16.10;99.90;;;;;;4932960;28;20476;-84
2022/11/01 04:25:46;;;;;;;11.38;5.00;;;16.10;99.90;;;;;;4922850;29;20118;-85
2022/11/01 04:28:13;;;;;;;12.80;5.68;;;16.10;99.90;;;;;;4938454;29;20059;-84
2022/11/01 04:30:39;;;;;;;15.40;5.40;;;16.20;99.90;;;;;;4934969;29;20039;-85
2022/11/01 04:33:05;;;;;;;14.63;5.72;;;16.20;99.90;;;;;;4934619;29;20044;-84
2022/11/01 04:35:31;;;;;;;9.90;4.70;;;16.20;99.90;;;;;;4922100;29;20122;-84
2022/11/01 04:37:57;;;;;;;12.82;5.40;;;16.20;99.90;;;;;;4938590;29;20051;-85
2022/11/01 04:40:24;;;;;;;8.50;4.85;;;16.20;99.90;;;;;;4936329;29;20035;-84
2022/11/01 04:42:51;;;;;;;11.30;4.97;;;16.20;99.90;;;;;;4954248;29;20035;-85
2022/11/01 04:45:17;;;;;;;13.30;4.95;;;16.20;99.90;;;;;;4956381;28;20050;-85
2022/11/01 04:47:50;;;;;;;9.68;4.68;;;16.20;99.90;;;;;;4953096;29;20044;-85
2022/11/01 04:50:20;;;;;;;9.38;4.53;;;16.20;99.90;;;;;;4936893;29;20046;-84
2022/11/01 04:52:47;;;;;;;13.23;5.18;;;16.20;99.90;;;;;;4958457;29;20039;-84
2022/11/01 04:55:13;;;;;;;11.48;4.93;;;16.20;99.90;;;;;;4955210;29;20079;-85
2022/11/01 04:57:40;;;;;;;10.65;5.20;;;16.10;99.90;;;;;;4939235;29;20075;-85
2022/11/01 05:00:07;;;;;;;10.52;4.90;;;16.10;99.90;;;;;;4958278;29;20039;-84
2022/11/01 05:02:32;;;;;;;8.93;5.05;;;16.10;99.90;;;;;;4926102;29;20042;-85
2022/11/01 05:04:58;;;;;;;12.52;4.50;;;16.10;99.90;;;;;;4942507;29;20082;-85
2022/11/01 05:07:24;;;;;;;18.15;5.00;;;16.10;99.90;;;;;;4926273;29;20062;-85
2022/11/01 05:09:49;;;;;;;9.18;4.97;;;16.10;99.90;;;;;;4941705;29;20073;-84
2022/11/01 05:12:15;;;;;;;7.38;4.40;;;16.00;99.90;;;;;;4926059;29;20051;-84
2022/11/01 05:14:40;;;;;;;12.93;4.43;;;16.00;99.90;;;;;;4958817;28;20051;-84
2022/11/01 05:17:06;;;;;;;10.15;3.55;;;16.00;99.90;;;;;;4926136;29;20523;-85
2022/11/01 05:19:32;;;;;;;6.60;2.85;;;16.00;99.90;;;;;;4941487;29;20047;-84
2022/11/01 05:21:58;;;;;;;6.70;2.20;;;15.90;99.90;;;;;;4941468;29;20039;-85
2022/11/01 05:24:24;;;;;;;4.93;2.15;;;15.90;99.90;;;;;;4957351;28;20118;-84
2022/11/01 05:26:50;;;;;;;3.90;1.80;;;15.90;99.90;;;;;;4941742;29;20125;-84
2022/11/01 05:29:15;;;;;;;5.10;1.45;;;15.80;99.90;;;;;;4957995;29;20094;-85
2022/11/01 05:31:41;;;;;;;8.63;1.83;;;15.70;99.90;;;;;;4925889;29;20031;-84
2022/11/01 05:34:07;;;;;;;8.23;1.40;;;15.60;99.90;;;;;;4925660;29;20102;-85
2022/11/01 05:36:32;;;;;;;6.85;1.30;;;15.50;99.90;;;;;;4909778;29;20063;-84
2022/11/01 05:38:59;;;;;;;7.53;1.70;;;15.50;99.90;;;;;;4922916;29;20083;-84
2022/11/01 05:41:25;;;;;;;6.63;1.30;;;15.40;99.90;;;;;;4925833;29;20046;-85
2022/11/01 05:43:50;;;;;;;3.95;1.25;;;15.30;99.90;;;;;;4923206;29;20066;-84
2022/11/01 05:46:16;;;;;;;6.32;1.67;;;15.20;99.90;;;;;;4926131;29;20039;-84
2022/11/01 05:48:42;;;;;;;5.07;1.50;;;15.20;99.90;;;;;;4941677;29;20093;-84
2022/11/01 05:51:09;;;;;;;2.78;1.27;;;15.10;99.90;;;;;;4924469;29;20047;-84
2022/11/01 05:53:34;;;;;;;6.00;1.40;;;15.10;99.90;;;;;;4935458;29;20054;-84
2022/11/01 05:56:00;;;;;;;3.70;1.20;;;15.00;99.90;;;;;;4927268;29;20039;-85
2022/11/01 05:58:26;;;;;;;7.70;1.50;;;15.00;99.90;;;;;;4909501;29;20039;-84
2022/11/01 06:01:04;;;;;;;6.53;1.75;;;14.90;99.90;;;;;;4953451;29;20126;-85
2022/11/01 06:03:31;;;;;;;5.25;1.10;;;14.90;99.90;;;;;;4930841;29;20075;-85
2022/11/01 06:05:57;;;;;;;6.28;1.33;;;14.90;99.90;;;;;;4940351;28;20114;-84
2022/11/01 06:08:24;;;;;;;7.25;0.95;;;14.90;99.90;;;;;;4925107;29;20043;-84
2022/11/01 06:10:50;;;;;;;6.05;1.08;;;14.70;99.90;;;;;;4925397;29;20043;-85
2022/11/01 06:13:16;;;;;;;5.90;1.00;;;14.80;99.90;;;;;;4944669;29;20039;-84
2022/11/01 06:15:42;;;;;;;10.05;1.20;;;14.70;99.90;;;;;;4957014;29;20118;-84
2022/11/01 06:18:08;;;;;;;5.13;1.10;;;14.70;99.90;;;;;;4940887;29;20179;-84
2022/11/01 06:20:35;;;;;;;5.53;0.90;;;14.70;99.90;;;;;;4940009;29;20047;-85
2022/11/01 06:23:08;;;;;;;5.93;1.13;;;14.60;99.90;;;;;;4941771;29;20110;-85
2022/11/01 06:25:33;;;;;;;4.50;0.98;;;14.60;99.90;;;;;;4924602;29;20557;-84
2022/11/01 06:27:59;;;;;;;4.13;1.10;;;14.60;99.90;;;;;;4957190;29;20051;-85
2022/11/01 06:30:25;;;;;;;4.28;1.17;;;14.60;99.90;;;;;;4940814;29;20043;-85
2022/11/01 06:32:50;;;;;;;8.55;1.58;;;14.60;99.90;;;;;;4910448;29;20098;-84
2022/11/01 06:35:16;;;;;;;6.95;1.40;;;14.60;99.90;;;;;;4941285;29;20055;-84
2022/11/01 06:37:42;;;;;;;4.88;1.30;;;14.50;99.90;;;;;;4942163;29;20299;-85
2022/11/01 06:40:09;;;;;;;11.77;1.52;;;14.60;99.90;;;;;;4925670;29;20074;-84
2022/11/01 06:42:34;;;;;;;6.43;1.38;;;14.50;99.90;;;;;;4940986;29;20046;-85
2022/11/01 06:45:00;;;;;;;7.03;1.40;;;14.50;99.90;;;;;;4926000;29;20047;-83
2022/11/01 06:47:25;;;;;;;4.63;1.48;;;14.50;99.90;;;;;;4954382;29;20043;-84
2022/11/01 06:49:51;;;;;;;5.45;1.42;;;14.50;99.90;;;;;;4946128;29;20047;-85
2022/11/01 06:52:17;;;;;;;7.90;1.67;;;14.50;99.90;;;;;;4926071;29;20502;-85
2022/11/01 06:54:42;;;;;;;5.85;1.45;;;14.50;99.90;;;;;;4925720;29;20050;-85
2022/11/01 06:57:08;;;;;;;10.13;1.60;;;14.50;99.90;;;;;;4942663;29;20051;-84
2022/11/01 06:59:35;;;;;;;6.55;1.40;;;14.50;99.90;;;;;;4942343;29;20047;-84
2022/11/01 07:02:01;;;;;;;6.28;1.23;;;14.50;99.90;;;;;;4926249;29;20594;-84
2022/11/01 07:04:28;;;;;;;8.88;1.30;;;14.50;99.90;;;;;;4940757;29;20047;-85
2022/11/01 07:06:54;;;;;;;5.15;1.40;;;14.50;99.90;;;;;;4928501;29;20039;-85
2022/11/01 07:09:19;;;;;;;4.93;1.38;;;14.50;99.90;;;;;;4942663;29;20117;-86
2022/11/01 07:11:45;;;;;;;5.03;1.13;;;14.50;99.90;;;;;;4926271;29;20108;-86
2022/11/01 07:14:11;;;;;;;3.55;1.02;;;14.50;99.90;;;;;;4941486;29;20106;-85
2022/11/01 07:16:38;;;;;;;3.47;0.90;;;14.50;99.90;;;;;;4935590;29;20051;-88
2022/11/01 07:19:04;;;;;;;3.97;1.33;;;14.50;99.90;;;;;;4957175;29;20047;-86
2022/11/01 07:21:30;;;;;;;4.78;1.23;;;14.60;99.90;;;;;;4925823;29;20043;-85
2022/11/01 07:23:55;;;;;;;4.55;0.93;;;14.60;99.90;;;;;;4942172;29;20035;-86
2022/11/01 07:26:21;;;;;;;5.97;1.40;;;14.60;99.90;;;;;;4956130;29;20047;-85
2022/11/01 07:28:47;;;;;;;4.97;1.35;;;14.60;99.90;;;;;;4956219;29;20046;-86
2022/11/01 07:31:12;;;;;;;6.35;1.40;;;14.50;99.90;;;;;;4941462;29;20043;-84
2022/11/01 07:33:38;;;;;;;8.55;1.48;;;14.50;99.90;;;;;;4941151;29;20086;-86
2022/11/01 07:36:04;;;;;;;5.97;1.75;;;14.50;99.90;;;;;;4941368;29;20148;-86
2022/11/01 07:38:30;;;;;;;9.90;2.17;;;14.50;99.90;;;;;;4926749;29;20496;-88
2022/11/01 07:40:56;;;;;;;4.50;1.20;;;14.50;99.90;;;;;;4941825;29;20074;-89
2022/11/01 07:43:21;;;;;;;6.70;1.52;;;14.50;99.90;;;;;;4943725;29;20403;-87
2022/11/01 07:45:48;;;;;;;9.85;1.90;;;14.50;99.90;;;;;;4945313;29;20039;-88
2022/11/01 07:48:16;;;;;;;11.57;1.77;;;14.50;99.90;;;;;;4965522;29;20047;-86
2022/11/01 07:50:42;;;;;;;9.88;2.08;;;14.50;99.90;;;;;;4952071;29;20043;-86
2022/11/01 07:53:12;;;;;;;11.50;1.95;;;14.50;99.90;;;;;;4951778;29;20044;-88
2022/11/01 07:55:38;;;;;;;9.32;1.88;;;14.60;99.90;;;;;;4951473;29;20130;-86
2022/11/01 07:58:05;;;;;;;11.13;2.17;;;14.60;99.90;;;;;;4929280;29;20039;-89
2022/11/01 08:00:31;;;;;;;12.48;2.63;;;14.70;99.90;;;;;;4935407;29;20046;-87
2022/11/01 08:03:07;;;;;;;17.50;2.33;;;14.70;99.90;;;;;;4942141;29;20054;-86
2022/11/01 08:05:34;;;;;;;10.32;2.00;;;14.70;99.90;;;;;;4940583;28;20039;-88
2022/11/01 08:08:00;;;;;;;10.27;2.60;;;14.80;99.90;;;;;;4945722;29;20046;-88
2022/11/01 08:10:27;;;;;;;12.30;2.63;;;14.90;99.90;;;;;;4921099;29;20041;-87
2022/11/01 08:13:00;;;;;;;15.65;3.25;;;14.90;99.90;;;;;;4976330;29;20043;-87
2022/11/01 08:15:26;;;;;;;13.55;2.58;;;14.90;99.90;;;;;;4958205;29;20050;-87
2022/11/01 08:17:55;;;;;;;20.00;3.13;;;14.90;99.90;;;;;;4942086;29;20126;-87
2022/11/01 08:20:20;;;;;;;16.10;2.42;;;14.90;99.90;;;;;;4957681;29;20078;-87
2022/11/01 08:22:46;;;;;;;18.15;2.83;;;14.80;99.90;;;;;;4955687;29;20036;-87
2022/11/01 08:25:16;;;;;;;16.92;3.05;;;14.90;99.90;;;;;;4956264;28;20045;-85
2022/11/01 08:27:45;;;;;;;15.32;2.70;;;14.90;99.90;;;;;;4933026;29;20044;-87
2022/11/01 08:30:13;;;;;;;16.13;2.30;;;14.90;99.90;;;;;;4947515;28;20611;-85
2022/11/01 08:32:40;;;;;;;13.23;2.42;;;14.90;99.90;;;;;;4950509;29;20043;-86
2022/11/01 08:35:07;;;;;;;15.32;2.80;;;14.80;99.90;;;;;;4928323;29;20052;-85
2022/11/01 08:37:33;;;;;;;21.15;2.70;;;14.80;99.90;;;;;;4944216;29;20043;-86
2022/11/01 08:39:59;;;;;;;17.33;2.78;;;14.80;99.90;;;;;;4929294;29;20380;-86
2022/11/01 08:42:24;;;;;;;16.60;3.13;;;14.80;99.90;;;;;;4927491;29;20035;-86
2022/11/01 08:44:54;;;;;;;14.80;2.47;;;14.80;99.90;;;;;;4960046;29;20039;-85
2022/11/01 08:47:19;;;;;;;14.82;2.95;;;14.80;99.90;;;;;;4922809;29;20190;-85
2022/11/01 08:49:45;;;;;;;21.02;2.83;;;14.80;99.90;;;;;;4941977;29;20047;-85
2022/11/01 08:52:11;;;;;;;13.05;2.70;;;14.80;99.90;;;;;;4953460;29;20126;-86
2022/11/01 08:54:37;;;;;;;14.38;2.97;;;14.80;99.90;;;;;;4943686;29;20054;-85
2022/11/01 08:57:03;;;;;;;15.55;2.53;;;14.80;99.90;;;;;;4942051;29;20127;-85
2022/11/01 08:59:28;;;;;;;18.63;3.35;;;14.80;99.90;;;;;;4926797;29;20075;-86
2022/11/01 09:01:54;;;;;;;11.68;2.33;;;14.90;99.90;;;;;;4942178;29;20062;-84
2022/11/01 09:04:20;;;;;;;14.48;2.92;;;14.90;99.90;;;;;;4925849;29;20446;-86
2022/11/01 09:06:46;;;;;;;13.35;2.28;;;14.90;99.90;;;;;;4926797;29;20085;-85
2022/11/01 09:09:12;;;;;;;21.17;2.80;;;15.00;99.90;;;;;;4955540;29;20051;-83
2022/11/01 09:11:38;;;;;;;13.25;3.10;;;15.30;99.90;;;;;;4952100;29;20035;-87
2022/11/01 09:14:04;;;;;;;10.90;2.42;;;15.50;99.90;;;;;;4926221;29;20039;-84
2022/11/01 09:16:31;;;;;;;13.15;2.33;;;15.80;99.90;;;;;;4923716;29;20071;-84
2022/11/01 09:19:00;;;;;;;13.57;2.60;;;16.10;99.90;;;;;;4943261;29;20095;-85
2022/11/01 09:21:27;;;;;;;17.33;2.88;;;16.10;99.90;;;;;;4951421;29;20115;-84
2022/11/01 09:23:53;;;;;;;18.77;2.90;;;16.00;99.90;;;;;;4917675;29;20070;-83
2022/11/01 09:26:19;;;;;;;13.52;3.25;;;16.00;99.90;;;;;;4938099;29;20032;-83
2022/11/01 09:28:45;;;;;;;15.52;3.40;;;16.30;99.90;;;;;;4939137;29;20058;-83
2022/11/01 09:31:11;;;;;;;13.63;2.38;;;16.40;99.90;;;;;;4941562;29;20106;-83
2022/11/01 09:33:37;;;;;;;12.95;2.55;;;16.40;99.90;;;;;;4930090;29;20495;-82
2022/11/01 09:36:03;;;;;;;14.15;2.75;;;16.20;99.90;;;;;;4924558;29;20105;-82
2022/11/01 09:38:29;;;;;;;16.48;2.80;;;16.10;99.90;;;;;;4953312;29;20051;-82
2022/11/01 09:41:00;;;;;;;12.57;2.65;;;16.00;99.90;;;;;;4953318;29;20031;-83
2022/11/01 09:43:30;;;;;;;19.17;2.90;;;16.00;99.90;;;;;;4954778;29;20047;-83
2022/11/01 09:45:58;;;;;;;12.98;2.55;;;16.00;99.90;;;;;;4955153;29;20487;-83
2022/11/01 09:48:27;;;;;;;12.50;2.95;;;16.00;99.90;;;;;;4939729;29;20178;-83
2022/11/01 09:50:53;;;;;;;13.63;2.55;;;16.00;99.90;;;;;;4940288;29;20040;-83
2022/11/01 09:53:25;;;;;;;11.32;2.70;;;16.00;99.90;;;;;;4939976;29;20047;-82
2022/11/01 09:56:13;;;;;;;9.15;2.58;;;16.10;99.90;;;;;;4955972;29;20035;-84
2022/11/01 09:58:51;;;;;;;15.10;2.65;;;16.40;99.90;;;;;;4936643;29;20404;-83
2022/11/01 10:01:41;;;;;;;17.92;3.47;;;16.50;99.90;;;;;;4940345;29;20047;-83
2022/11/01 10:04:27;;;;;;;19.70;3.10;;;16.50;99.90;;;;;;4955557;29;20043;-83
2022/11/01 10:07:00;;;;;;;14.70;2.80;;;16.30;99.90;;;;;;4928125;29;20050;-83
2022/11/01 10:09:53;;;;;;;13.93;2.72;;;16.20;99.90;;;;;;4937912;29;20448;-82
2022/11/01 10:12:45;;;;;;;19.35;2.92;;;16.00;99.90;;;;;;4927762;29;20488;-84
2022/11/01 10:15:37;;;;;;;14.05;2.30;;;15.90;99.90;;;;;;4943918;28;20130;-83
2022/11/01 10:18:27;;;;;;;13.20;2.72;;;15.80;99.90;;;;;;4938794;29;20055;-83
2022/11/01 10:20:55;;;;;;;11.40;2.45;;;15.70;99.90;;;;;;4956929;29;20083;-82
2022/11/01 10:23:33;;;;;;;14.10;2.22;;;15.70;99.90;;;;;;4956610;28;20047;-82
2022/11/01 10:25:59;;;;;;;14.10;2.85;;;15.60;99.90;;;;;;4940243;29;20453;-83
2022/11/01 10:28:40;;;;;;;13.13;2.88;;;15.60;99.90;;;;;;4925592;29;20047;-83
2022/11/01 10:31:14;;;;;;;15.90;2.95;;;15.60;99.90;;;;;;4937607;29;20485;-83
2022/11/01 10:33:52;;;;;;;15.48;2.63;;;15.50;99.90;;;;;;4939839;29;20122;-83
2022/11/01 10:36:22;;;;;;;13.30;2.60;;;15.60;99.90;;;;;;4956434;29;20113;-84
2022/11/01 10:39:06;;;;;;;18.50;2.70;;;15.70;99.90;;;;;;4954932;29;20059;-83
2022/11/01 10:41:51;;;;;;;8.43;2.00;;;15.80;99.90;;;;;;4954991;28;20047;-84
2022/11/01 10:44:22;;;;;;;15.50;2.80;;;15.80;99.90;;;;;;4956173;29;20046;-83
2022/11/01 10:46:50;;;;;;;14.30;4.00;;;15.80;99.90;;;;;;4955053;29;20047;-83
2022/11/01 10:49:27;;;;;;;13.88;2.95;;;15.80;99.90;;;;;;4922651;29;20039;-83
2022/11/01 10:51:59;;;;;;;13.68;2.88;;;15.90;99.90;;;;;;4955224;28;20058;-83
2022/11/01 10:54:27;;;;;;;14.23;3.03;;;15.90;99.90;;;;;;4954642;29;20050;-84
2022/11/01 10:56:58;;;;;;;14.77;2.78;;;15.90;99.90;;;;;;4955181;29;20051;-84
2022/11/01 10:59:28;;;;;;;14.70;3.05;;;15.90;99.90;;;;;;4939426;29;20043;-84
2022/11/01 11:01:55;;;;;;;12.15;2.72;;;15.90;99.90;;;;;;4939007;29;20574;-84
2022/11/01 11:04:23;;;;;;;16.77;2.97;;;15.90;99.90;;;;;;4955554;29;20039;-84
2022/11/01 11:06:50;;;;;;;15.38;3.05;;;15.80;99.90;;;;;;4938544;29;20054;-84
2022/11/01 11:09:21;;;;;;;17.88;3.05;;;15.80;99.90;;;;;;4938291;29;20047;-84
2022/11/01 11:11:48;;;;;;;17.52;2.50;;;15.80;99.90;;;;;;4945631;29;20040;-84
2022/11/01 11:14:17;;;;;;;12.52;2.92;;;15.90;99.90;;;;;;4940188;29;20036;-84
2022/11/01 11:17:02;;;;;;;14.85;2.92;;;16.00;99.90;;;;;;4940162;29;20036;-84
2022/11/01 11:19:28;;;;;;;16.25;2.72;;;16.20;99.90;;;;;;4925053;29;20077;-84
2022/11/01 11:21:55;;;;;;;11.25;2.83;;;16.50;99.90;;;;;;4938764;29;20380;-84
2022/11/01 11:24:23;;;;;;;9.68;2.50;;;17.00;99.90;;;;;;4937872;29;20047;-85
2022/11/01 11:26:51;;;;;;;13.57;2.55;;;17.30;99.90;;;;;;4955043;29;20053;-85
2022/11/01 11:29:35;;;;;;;13.85;2.63;;;17.30;99.90;;;;;;4946675;29;20054;-85
2022/11/01 11:32:02;;;;;;;16.35;3.33;;;17.20;99.90;;;;;;4931733;29;20039;-84
2022/11/01 11:34:32;;;;;;;18.10;2.78;;;17.30;99.90;;;;;;4923103;29;20040;-85
2022/11/01 11:37:01;;;;;;;13.63;2.47;;;17.40;99.90;;;;;;4939581;29;20061;-87
2022/11/01 11:39:35;;;;;;;13.07;2.50;;;17.40;99.90;;;;;;4957009;29;20134;-86
2022/11/01 11:42:25;;;;;;;9.52;2.50;;;17.20;99.90;;;;;;4940392;29;20047;-87
2022/11/01 11:45:06;;;;;;;16.27;2.67;;;17.00;99.90;;;;;;4956494;29;20059;-86
2022/11/01 11:47:38;;;;;;;16.80;2.35;;;16.90;99.90;;;;;;4927191;29;20043;-84
2022/11/01 11:50:19;;;;;;;10.75;2.10;;;17.10;99.90;;;;;;4939315;29;20066;-86
2022/11/01 11:52:55;;;;;;;17.02;2.42;;;17.10;99.90;;;;;;4956767;29;20047;-86
2022/11/01 11:55:41;;;;;;;13.35;2.28;;;17.10;99.90;;;;;;4939439;29;20043;-87
2022/11/01 11:58:17;;;;;;;10.63;2.22;;;17.20;99.90;;;;;;4940355;29;20043;-86
2022/11/01 12:00:47;;;;;;;12.50;2.47;;;17.60;99.90;;;;;;4944598;29;20051;-84
2022/11/01 12:03:16;;;;;;;12.18;2.65;;;17.90;99.90;;;;;;4958497;29;20043;-85
2022/11/01 12:06:00;;;;;;;10.00;2.30;;;17.90;99.90;;;;;;4913275;29;20062;-84
2022/11/01 12:08:42;;;;;;;14.02;2.25;;;17.60;99.90;;;;;;4917707;29;20047;-85
2022/11/01 12:11:08;;;;;;;10.23;2.47;;;17.30;99.90;;;;;;4940361;28;20035;-85
2022/11/01 12:13:37;;;;;;;9.05;1.85;;;17.10;99.90;;;;;;4947749;28;20190;-86
2022/11/01 12:16:13;;;;;;;10.20;1.70;;;16.90;99.90;;;;;;4961395;29;20043;-86
2022/11/01 12:18:56;;;;;;;10.60;2.00;;;16.80;99.90;;;;;;4964715;28;20042;-86
2022/11/01 12:21:25;;;;;;;11.45;2.40;;;16.80;99.90;;;;;;4948031;29;20044;-85
2022/11/01 12:23:58;;;;;;;12.00;2.45;;;16.70;99.90;;;;;;4949436;29;20043;-86
2022/11/01 12:26:27;;;;;;;12.35;2.60;;;16.70;99.90;;;;;;4949210;28;20074;-86
2022/11/01 12:29:24;;;;;;;16.45;2.08;;;16.90;99.90;;;;;;4964733;28;20079;-87
2022/11/01 12:31:51;;;;;;;9.23;2.47;;;17.00;99.90;;;;;;4963073;28;20082;-86
2022/11/01 12:34:29;;;;;;;10.98;2.22;;;17.10;99.90;;;;;;4948171;29;20047;-84
2022/11/01 12:37:21;;;;;;;11.73;2.30;;;17.10;99.90;;;;;;4960389;29;20051;-86
2022/11/01 12:39:53;;;;;;;13.93;2.58;;;17.00;99.90;;;;;;4939776;29;20172;-83
2022/11/01 12:42:27;;;;;;;13.63;2.33;;;16.90;99.90;;;;;;4941278;29;20412;-85
2022/11/01 12:45:14;;;;;;;9.63;2.03;;;16.90;99.90;;;;;;4952638;29;20043;-84
2022/11/01 12:47:45;;;;;;;9.70;2.25;;;17.00;99.90;;;;;;4946599;29;20038;-83
2022/11/01 12:50:19;;;;;;;6.47;1.80;;;17.00;99.90;;;;;;4983094;28;20047;-84
2022/11/01 12:53:14;;;;;;;12.07;2.05;;;17.30;99.90;;;;;;4963641;29;20098;-84
2022/11/01 12:55:41;;;;;;;8.43;1.90;;;17.50;99.90;;;;;;4947525;29;20053;-84
2022/11/01 12:58:14;;;;;;;10.13;2.25;;;17.70;99.90;;;;;;4947374;29;20069;-84
2022/11/01 13:01:05;;;;;;;16.27;2.13;;;17.80;99.90;;;;;;4948396;29;20075;-83
2022/11/01 13:03:55;;;;;;;8.48;1.80;;;17.80;99.90;;;;;;4947406;29;20075;-85